sensor_id;sensor_type;location;lat;lon;timestamp;P1;durP1;ratioP1;P2;durP2;ratioP2
61741;SDS011;47650;49.848;9.620;2022-09-09T00:00:11;3.38;;;2.40;;
61741;SDS011;47650;49.848;9.620;2022-09-09T00:02:39;6.18;;;3.25;;
61741;SDS011;47650;49.848;9.620;2022-09-09T00:05:20;7.47;;;3.35;;
61741;SDS011;47650;49.848;9.620;2022-09-09T00:07:54;9.30;;;3.60;;
61741;SDS011;47650;49.848;9.620;2022-09-09T00:18:31;5.65;;;2.80;;
61741;SDS011;47650;49.848;9.620;2022-09-09T00:21:04;4.97;;;2.90;;
61741;SDS011;47650;49.848;9.620;2022-09-09T00:28:56;6.20;;;2.88;;
61741;SDS011;47650;49.848;9.620;2022-09-09T00:31:29;5.55;;;2.70;;
61741;SDS011;47650;49.848;9.620;2022-09-09T00:34:00;7.00;;;3.20;;
61741;SDS011;47650;49.848;9.620;2022-09-09T00:36:36;7.35;;;2.80;;
61741;SDS011;47650;49.848;9.620;2022-09-09T00:39:04;6.20;;;2.95;;
61741;SDS011;47650;49.848;9.620;2022-09-09T00:41:50;8.45;;;3.15;;
61741;SDS011;47650;49.848;9.620;2022-09-09T00:44:33;5.28;;;3.42;;
61741;SDS011;47650;49.848;9.620;2022-09-09T00:58:23;6.65;;;3.10;;
61741;SDS011;47650;49.848;9.620;2022-09-09T01:01:07;10.40;;;3.85;;
61741;SDS011;47650;49.848;9.620;2022-09-09T01:03:44;8.43;;;3.60;;
61741;SDS011;47650;49.848;9.620;2022-09-09T01:20:07;6.30;;;3.40;;
61741;SDS011;47650;49.848;9.620;2022-09-09T01:25:30;8.15;;;3.70;;
61741;SDS011;47650;49.848;9.620;2022-09-09T01:28:09;7.97;;;4.00;;
61741;SDS011;47650;49.848;9.620;2022-09-09T01:30:39;6.25;;;3.60;;
61741;SDS011;47650;49.848;9.620;2022-09-09T01:33:07;6.00;;;3.67;;
61741;SDS011;47650;49.848;9.620;2022-09-09T01:38:23;12.02;;;4.20;;
61741;SDS011;47650;49.848;9.620;2022-09-09T01:40:50;8.07;;;3.63;;
61741;SDS011;47650;49.848;9.620;2022-09-09T01:43:18;7.43;;;3.20;;
61741;SDS011;47650;49.848;9.620;2022-09-09T01:45:45;8.70;;;4.32;;
61741;SDS011;47650;49.848;9.620;2022-09-09T01:48:22;6.57;;;3.30;;
61741;SDS011;47650;49.848;9.620;2022-09-09T01:50:49;7.85;;;4.03;;
61741;SDS011;47650;49.848;9.620;2022-09-09T01:53:14;6.97;;;3.45;;
61741;SDS011;47650;49.848;9.620;2022-09-09T01:55:49;6.47;;;3.08;;
61741;SDS011;47650;49.848;9.620;2022-09-09T02:03:37;4.97;;;3.05;;
61741;SDS011;47650;49.848;9.620;2022-09-09T02:08:33;8.70;;;3.50;;
61741;SDS011;47650;49.848;9.620;2022-09-09T02:11:07;5.13;;;2.95;;
61741;SDS011;47650;49.848;9.620;2022-09-09T02:13:38;7.43;;;2.83;;
61741;SDS011;47650;49.848;9.620;2022-09-09T02:16:07;7.00;;;3.03;;
61741;SDS011;47650;49.848;9.620;2022-09-09T02:21:42;4.35;;;2.50;;
61741;SDS011;47650;49.848;9.620;2022-09-09T02:24:10;4.88;;;2.70;;
61741;SDS011;47650;49.848;9.620;2022-09-09T02:26:41;8.25;;;3.30;;
61741;SDS011;47650;49.848;9.620;2022-09-09T02:29:19;5.63;;;2.97;;
61741;SDS011;47650;49.848;9.620;2022-09-09T02:31:50;3.83;;;2.42;;
61741;SDS011;47650;49.848;9.620;2022-09-09T02:34:21;6.38;;;3.20;;
61741;SDS011;47650;49.848;9.620;2022-09-09T02:36:50;5.32;;;3.28;;
61741;SDS011;47650;49.848;9.620;2022-09-09T02:39:20;7.95;;;3.40;;
61741;SDS011;47650;49.848;9.620;2022-09-09T02:41:45;7.57;;;3.75;;
61741;SDS011;47650;49.848;9.620;2022-09-09T02:44:14;4.57;;;3.10;;
61741;SDS011;47650;49.848;9.620;2022-09-09T02:49:37;5.45;;;3.33;;
61741;SDS011;47650;49.848;9.620;2022-09-09T02:54:55;5.57;;;3.00;;
61741;SDS011;47650;49.848;9.620;2022-09-09T02:59:57;7.43;;;3.63;;
61741;SDS011;47650;49.848;9.620;2022-09-09T03:02:24;6.75;;;3.55;;
61741;SDS011;47650;49.848;9.620;2022-09-09T03:04:50;6.20;;;3.70;;
61741;SDS011;47650;49.848;9.620;2022-09-09T03:07:19;7.57;;;4.40;;
61741;SDS011;47650;49.848;9.620;2022-09-09T03:09:45;5.65;;;3.40;;
61741;SDS011;47650;49.848;9.620;2022-09-09T03:12:10;10.63;;;5.35;;
61741;SDS011;47650;49.848;9.620;2022-09-09T03:14:36;7.90;;;3.70;;
61741;SDS011;47650;49.848;9.620;2022-09-09T03:17:09;8.95;;;4.28;;
61741;SDS011;47650;49.848;9.620;2022-09-09T03:19:35;6.45;;;3.67;;
61741;SDS011;47650;49.848;9.620;2022-09-09T03:22:01;5.00;;;2.70;;
61741;SDS011;47650;49.848;9.620;2022-09-09T03:24:26;10.32;;;4.03;;
61741;SDS011;47650;49.848;9.620;2022-09-09T03:26:51;7.32;;;3.17;;
61741;SDS011;47650;49.848;9.620;2022-09-09T03:29:17;4.65;;;3.10;;
61741;SDS011;47650;49.848;9.620;2022-09-09T03:31:43;4.03;;;2.80;;
61741;SDS011;47650;49.848;9.620;2022-09-09T03:34:10;6.28;;;3.42;;
61741;SDS011;47650;49.848;9.620;2022-09-09T03:36:37;5.25;;;3.28;;
61741;SDS011;47650;49.848;9.620;2022-09-09T03:39:02;6.60;;;4.07;;
61741;SDS011;47650;49.848;9.620;2022-09-09T03:41:28;8.00;;;4.15;;
61741;SDS011;47650;49.848;9.620;2022-09-09T03:43:54;6.18;;;4.15;;
61741;SDS011;47650;49.848;9.620;2022-09-09T03:46:22;6.25;;;3.50;;
61741;SDS011;47650;49.848;9.620;2022-09-09T03:48:48;8.57;;;3.80;;
61741;SDS011;47650;49.848;9.620;2022-09-09T03:51:14;5.50;;;3.60;;
61741;SDS011;47650;49.848;9.620;2022-09-09T03:53:40;4.75;;;3.22;;
61741;SDS011;47650;49.848;9.620;2022-09-09T03:56:06;7.85;;;3.55;;
61741;SDS011;47650;49.848;9.620;2022-09-09T03:58:35;8.15;;;3.38;;
61741;SDS011;47650;49.848;9.620;2022-09-09T04:01:06;8.45;;;4.07;;
61741;SDS011;47650;49.848;9.620;2022-09-09T04:06:02;6.93;;;3.83;;
61741;SDS011;47650;49.848;9.620;2022-09-09T04:08:28;8.43;;;3.55;;
61741;SDS011;47650;49.848;9.620;2022-09-09T04:10:56;5.05;;;3.67;;
61741;SDS011;47650;49.848;9.620;2022-09-09T04:13:23;7.32;;;3.90;;
61741;SDS011;47650;49.848;9.620;2022-09-09T04:15:55;6.40;;;4.75;;
61741;SDS011;47650;49.848;9.620;2022-09-09T04:18:23;6.78;;;4.50;;
61741;SDS011;47650;49.848;9.620;2022-09-09T04:20:55;8.45;;;5.03;;
61741;SDS011;47650;49.848;9.620;2022-09-09T04:23:22;12.45;;;6.15;;
61741;SDS011;47650;49.848;9.620;2022-09-09T04:25:52;5.70;;;3.92;;
61741;SDS011;47650;49.848;9.620;2022-09-09T04:28:20;5.35;;;3.70;;
61741;SDS011;47650;49.848;9.620;2022-09-09T04:30:47;6.57;;;3.63;;
61741;SDS011;47650;49.848;9.620;2022-09-09T04:33:13;6.75;;;3.83;;
61741;SDS011;47650;49.848;9.620;2022-09-09T04:35:39;6.35;;;3.75;;
61741;SDS011;47650;49.848;9.620;2022-09-09T04:38:10;9.20;;;5.15;;
61741;SDS011;47650;49.848;9.620;2022-09-09T04:40:35;8.52;;;5.18;;
61741;SDS011;47650;49.848;9.620;2022-09-09T04:43:02;9.20;;;4.68;;
61741;SDS011;47650;49.848;9.620;2022-09-09T04:45:29;8.05;;;4.15;;
61741;SDS011;47650;49.848;9.620;2022-09-09T04:47:55;7.32;;;4.53;;
61741;SDS011;47650;49.848;9.620;2022-09-09T04:50:21;7.57;;;4.03;;
61741;SDS011;47650;49.848;9.620;2022-09-09T04:52:46;6.47;;;3.22;;
61741;SDS011;47650;49.848;9.620;2022-09-09T04:55:12;6.50;;;4.03;;
61741;SDS011;47650;49.848;9.620;2022-09-09T04:57:38;8.02;;;4.03;;
61741;SDS011;47650;49.848;9.620;2022-09-09T05:00:04;9.65;;;5.10;;
61741;SDS011;47650;49.848;9.620;2022-09-09T05:02:29;11.95;;;5.05;;
61741;SDS011;47650;49.848;9.620;2022-09-09T05:04:55;5.78;;;3.35;;
61741;SDS011;47650;49.848;9.620;2022-09-09T05:07:23;8.90;;;4.28;;
61741;SDS011;47650;49.848;9.620;2022-09-09T05:09:48;9.90;;;7.03;;
61741;SDS011;47650;49.848;9.620;2022-09-09T05:12:15;8.13;;;6.68;;
61741;SDS011;47650;49.848;9.620;2022-09-09T05:14:43;12.05;;;7.43;;
61741;SDS011;47650;49.848;9.620;2022-09-09T05:17:08;9.10;;;7.72;;
61741;SDS011;47650;49.848;9.620;2022-09-09T05:19:34;11.15;;;8.93;;
61741;SDS011;47650;49.848;9.620;2022-09-09T05:22:00;15.82;;;11.23;;
61741;SDS011;47650;49.848;9.620;2022-09-09T05:24:27;15.15;;;13.57;;
61741;SDS011;47650;49.848;9.620;2022-09-09T05:26:52;13.70;;;10.88;;
61741;SDS011;47650;49.848;9.620;2022-09-09T05:29:17;12.35;;;11.10;;
61741;SDS011;47650;49.848;9.620;2022-09-09T05:31:44;10.55;;;8.25;;
61741;SDS011;47650;49.848;9.620;2022-09-09T05:34:10;10.45;;;7.32;;
61741;SDS011;47650;49.848;9.620;2022-09-09T05:36:38;7.90;;;5.15;;
61741;SDS011;47650;49.848;9.620;2022-09-09T05:39:04;7.88;;;5.72;;
61741;SDS011;47650;49.848;9.620;2022-09-09T05:41:29;8.50;;;5.07;;
61741;SDS011;47650;49.848;9.620;2022-09-09T05:43:56;12.95;;;8.38;;
61741;SDS011;47650;49.848;9.620;2022-09-09T05:46:22;5.63;;;4.50;;
61741;SDS011;47650;49.848;9.620;2022-09-09T05:48:50;5.13;;;3.95;;
61741;SDS011;47650;49.848;9.620;2022-09-09T05:51:20;3.17;;;2.88;;
61741;SDS011;47650;49.848;9.620;2022-09-09T05:53:48;6.65;;;3.03;;
61741;SDS011;47650;49.848;9.620;2022-09-09T05:56:16;5.90;;;3.45;;
61741;SDS011;47650;49.848;9.620;2022-09-09T05:58:48;6.13;;;2.95;;
61741;SDS011;47650;49.848;9.620;2022-09-09T06:01:21;4.38;;;2.80;;
61741;SDS011;47650;49.848;9.620;2022-09-09T06:03:55;6.40;;;2.80;;
61741;SDS011;47650;49.848;9.620;2022-09-09T06:06:22;7.80;;;2.83;;
61741;SDS011;47650;49.848;9.620;2022-09-09T06:08:51;5.55;;;3.83;;
61741;SDS011;47650;49.848;9.620;2022-09-09T06:11:21;8.07;;;3.72;;
61741;SDS011;47650;49.848;9.620;2022-09-09T06:13:48;7.63;;;3.00;;
61741;SDS011;47650;49.848;9.620;2022-09-09T06:16:16;6.53;;;2.70;;
61741;SDS011;47650;49.848;9.620;2022-09-09T06:18:43;3.42;;;2.60;;
61741;SDS011;47650;49.848;9.620;2022-09-09T06:21:15;6.97;;;2.63;;
61741;SDS011;47650;49.848;9.620;2022-09-09T06:23:41;5.45;;;2.58;;
61741;SDS011;47650;49.848;9.620;2022-09-09T06:26:17;6.32;;;3.10;;
61741;SDS011;47650;49.848;9.620;2022-09-09T06:28:48;5.10;;;2.40;;
61741;SDS011;47650;49.848;9.620;2022-09-09T06:31:15;4.35;;;2.50;;
61741;SDS011;47650;49.848;9.620;2022-09-09T06:36:18;3.95;;;2.60;;
61741;SDS011;47650;49.848;9.620;2022-09-09T06:38:45;8.68;;;2.50;;
61741;SDS011;47650;49.848;9.620;2022-09-09T06:41:14;7.80;;;2.65;;
61741;SDS011;47650;49.848;9.620;2022-09-09T06:43:40;11.63;;;7.88;;
61741;SDS011;47650;49.848;9.620;2022-09-09T06:48:52;5.50;;;2.28;;
61741;SDS011;47650;49.848;9.620;2022-09-09T06:51:20;6.90;;;2.70;;
61741;SDS011;47650;49.848;9.620;2022-09-09T06:53:47;12.77;;;3.63;;
61741;SDS011;47650;49.848;9.620;2022-09-09T06:58:41;9.20;;;2.87;;
61741;SDS011;47650;49.848;9.620;2022-09-09T07:01:11;6.25;;;2.45;;
61741;SDS011;47650;49.848;9.620;2022-09-09T07:03:38;2.92;;;1.15;;
61741;SDS011;47650;49.848;9.620;2022-09-09T07:06:06;3.20;;;1.20;;
61741;SDS011;47650;49.848;9.620;2022-09-09T07:08:38;3.65;;;1.23;;
61741;SDS011;47650;49.848;9.620;2022-09-09T07:11:06;2.03;;;0.98;;
61741;SDS011;47650;49.848;9.620;2022-09-09T07:13:32;5.75;;;1.65;;
61741;SDS011;47650;49.848;9.620;2022-09-09T07:16:11;4.50;;;1.20;;
61741;SDS011;47650;49.848;9.620;2022-09-09T07:18:38;3.42;;;0.98;;
61741;SDS011;47650;49.848;9.620;2022-09-09T07:21:04;3.15;;;1.40;;
61741;SDS011;47650;49.848;9.620;2022-09-09T07:23:30;3.47;;;1.08;;
61741;SDS011;47650;49.848;9.620;2022-09-09T07:25:56;3.33;;;1.00;;
61741;SDS011;47650;49.848;9.620;2022-09-09T07:28:22;2.53;;;1.15;;
61741;SDS011;47650;49.848;9.620;2022-09-09T07:30:58;3.97;;;1.00;;
61741;SDS011;47650;49.848;9.620;2022-09-09T07:33:29;2.92;;;1.05;;
61741;SDS011;47650;49.848;9.620;2022-09-09T07:36:01;3.63;;;1.23;;
61741;SDS011;47650;49.848;9.620;2022-09-09T07:38:33;1.75;;;1.38;;
61741;SDS011;47650;49.848;9.620;2022-09-09T07:41:08;4.35;;;1.13;;
61741;SDS011;47650;49.848;9.620;2022-09-09T07:43:39;2.05;;;0.98;;
61741;SDS011;47650;49.848;9.620;2022-09-09T07:46:09;2.50;;;1.00;;
61741;SDS011;47650;49.848;9.620;2022-09-09T07:48:37;3.97;;;1.27;;
61741;SDS011;47650;49.848;9.620;2022-09-09T07:51:13;2.10;;;1.05;;
61741;SDS011;47650;49.848;9.620;2022-09-09T07:53:43;4.40;;;1.17;;
61741;SDS011;47650;49.848;9.620;2022-09-09T07:56:10;3.53;;;1.52;;
61741;SDS011;47650;49.848;9.620;2022-09-09T07:58:37;4.13;;;1.38;;
61741;SDS011;47650;49.848;9.620;2022-09-09T08:01:11;4.30;;;1.73;;
61741;SDS011;47650;49.848;9.620;2022-09-09T08:03:41;2.92;;;1.45;;
61741;SDS011;47650;49.848;9.620;2022-09-09T08:06:08;3.85;;;1.52;;
61741;SDS011;47650;49.848;9.620;2022-09-09T08:08:38;3.50;;;1.38;;
61741;SDS011;47650;49.848;9.620;2022-09-09T08:11:11;2.88;;;1.35;;
61741;SDS011;47650;49.848;9.620;2022-09-09T08:13:39;3.40;;;2.17;;
61741;SDS011;47650;49.848;9.620;2022-09-09T08:16:09;5.78;;;2.20;;
61741;SDS011;47650;49.848;9.620;2022-09-09T08:18:36;3.65;;;2.30;;
61741;SDS011;47650;49.848;9.620;2022-09-09T08:21:13;6.50;;;2.55;;
61741;SDS011;47650;49.848;9.620;2022-09-09T08:23:42;5.88;;;1.58;;
61741;SDS011;47650;49.848;9.620;2022-09-09T08:28:44;4.93;;;1.63;;
61741;SDS011;47650;49.848;9.620;2022-09-09T08:33:39;4.85;;;1.90;;
61741;SDS011;47650;49.848;9.620;2022-09-09T08:36:08;5.30;;;1.80;;
61741;SDS011;47650;49.848;9.620;2022-09-09T08:38:36;4.18;;;1.45;;
61741;SDS011;47650;49.848;9.620;2022-09-09T08:41:19;5.57;;;1.65;;
61741;SDS011;47650;49.848;9.620;2022-09-09T08:52:30;6.68;;;2.03;;
61741;SDS011;47650;49.848;9.620;2022-09-09T08:55:25;4.00;;;1.60;;
61741;SDS011;47650;49.848;9.620;2022-09-09T08:58:01;5.75;;;2.72;;
61741;SDS011;47650;49.848;9.620;2022-09-09T09:00:38;5.82;;;2.10;;
61741;SDS011;47650;49.848;9.620;2022-09-09T09:08:58;6.28;;;5.20;;
61741;SDS011;47650;49.848;9.620;2022-09-09T09:11:25;4.75;;;1.65;;
61741;SDS011;47650;49.848;9.620;2022-09-09T09:13:58;5.10;;;2.30;;
61741;SDS011;47650;49.848;9.620;2022-09-09T09:16:38;4.70;;;2.55;;
61741;SDS011;47650;49.848;9.620;2022-09-09T09:19:11;5.20;;;3.15;;
61741;SDS011;47650;49.848;9.620;2022-09-09T09:24:48;6.50;;;5.90;;
61741;SDS011;47650;49.848;9.620;2022-09-09T09:27:16;8.02;;;7.22;;
61741;SDS011;47650;49.848;9.620;2022-09-09T09:29:47;7.13;;;6.43;;
61741;SDS011;47650;49.848;9.620;2022-09-09T09:32:16;6.53;;;6.03;;
61741;SDS011;47650;49.848;9.620;2022-09-09T09:34:49;6.70;;;6.00;;
61741;SDS011;47650;49.848;9.620;2022-09-09T09:37:20;8.43;;;3.58;;
61741;SDS011;47650;49.848;9.620;2022-09-09T09:39:53;8.50;;;2.50;;
61741;SDS011;47650;49.848;9.620;2022-09-09T09:42:18;5.22;;;1.70;;
61741;SDS011;47650;49.848;9.620;2022-09-09T09:44:45;6.50;;;2.20;;
61741;SDS011;47650;49.848;9.620;2022-09-09T09:47:14;6.35;;;2.10;;
61741;SDS011;47650;49.848;9.620;2022-09-09T09:49:57;7.20;;;2.10;;
61741;SDS011;47650;49.848;9.620;2022-09-09T09:52:25;5.15;;;1.85;;
61741;SDS011;47650;49.848;9.620;2022-09-09T09:54:53;5.90;;;2.00;;
61741;SDS011;47650;49.848;9.620;2022-09-09T09:57:27;5.60;;;1.85;;
61741;SDS011;47650;49.848;9.620;2022-09-09T10:00:03;6.78;;;2.35;;
61741;SDS011;47650;49.848;9.620;2022-09-09T10:02:38;5.33;;;1.73;;
61741;SDS011;47650;49.848;9.620;2022-09-09T10:05:09;5.10;;;1.45;;
61741;SDS011;47650;49.848;9.620;2022-09-09T10:07:40;6.85;;;1.83;;
61741;SDS011;47650;49.848;9.620;2022-09-09T10:10:13;7.90;;;1.48;;
61741;SDS011;47650;49.848;9.620;2022-09-09T10:12:53;3.15;;;1.30;;
61741;SDS011;47650;49.848;9.620;2022-09-09T10:15:38;10.65;;;1.65;;
61741;SDS011;47650;49.848;9.620;2022-09-09T10:29:11;5.65;;;2.13;;
61741;SDS011;47650;49.848;9.620;2022-09-09T10:31:53;8.00;;;2.05;;
61741;SDS011;47650;49.848;9.620;2022-09-09T10:34:42;5.80;;;1.50;;
61741;SDS011;47650;49.848;9.620;2022-09-09T10:37:35;2.63;;;1.20;;
61741;SDS011;47650;49.848;9.620;2022-09-09T10:40:26;5.18;;;1.75;;
61741;SDS011;47650;49.848;9.620;2022-09-09T10:43:34;4.85;;;2.50;;
61741;SDS011;47650;49.848;9.620;2022-09-09T10:48:40;8.77;;;3.38;;
61741;SDS011;47650;49.848;9.620;2022-09-09T10:56:50;3.08;;;2.00;;
61741;SDS011;47650;49.848;9.620;2022-09-09T10:59:24;4.22;;;2.33;;
61741;SDS011;47650;49.848;9.620;2022-09-09T11:02:26;3.58;;;1.90;;
61741;SDS011;47650;49.848;9.620;2022-09-09T11:05:02;3.58;;;2.25;;
61741;SDS011;47650;49.848;9.620;2022-09-09T11:07:37;3.08;;;1.98;;
61741;SDS011;47650;49.848;9.620;2022-09-09T11:13:05;2.90;;;1.92;;
61741;SDS011;47650;49.848;9.620;2022-09-09T11:15:41;3.38;;;1.98;;
61741;SDS011;47650;49.848;9.620;2022-09-09T11:18:12;2.72;;;1.80;;
61741;SDS011;47650;49.848;9.620;2022-09-09T11:20:41;2.33;;;1.70;;
61741;SDS011;47650;49.848;9.620;2022-09-09T11:23:12;2.78;;;1.95;;
61741;SDS011;47650;49.848;9.620;2022-09-09T11:25:52;2.92;;;1.13;;
61741;SDS011;47650;49.848;9.620;2022-09-09T11:37:33;3.28;;;1.60;;
61741;SDS011;47650;49.848;9.620;2022-09-09T11:42:42;4.22;;;1.48;;
61741;SDS011;47650;49.848;9.620;2022-09-09T11:45:11;4.85;;;1.65;;
61741;SDS011;47650;49.848;9.620;2022-09-09T11:47:54;4.00;;;1.27;;
61741;SDS011;47650;49.848;9.620;2022-09-09T11:55:41;4.43;;;1.90;;
61741;SDS011;47650;49.848;9.620;2022-09-09T12:00:38;5.20;;;1.67;;
61741;SDS011;47650;49.848;9.620;2022-09-09T12:06:15;3.00;;;1.67;;
61741;SDS011;47650;49.848;9.620;2022-09-09T12:08:45;3.03;;;1.55;;
61741;SDS011;47650;49.848;9.620;2022-09-09T12:11:27;3.53;;;1.40;;
61741;SDS011;47650;49.848;9.620;2022-09-09T12:13:55;2.42;;;1.50;;
61741;SDS011;47650;49.848;9.620;2022-09-09T12:16:34;5.97;;;1.58;;
61741;SDS011;47650;49.848;9.620;2022-09-09T12:22:07;6.25;;;1.50;;
61741;SDS011;47650;49.848;9.620;2022-09-09T12:24:39;3.40;;;1.50;;
61741;SDS011;47650;49.848;9.620;2022-09-09T12:27:20;3.35;;;1.50;;
61741;SDS011;47650;49.848;9.620;2022-09-09T12:30:11;2.00;;;1.30;;
61741;SDS011;47650;49.848;9.620;2022-09-09T12:32:40;1.52;;;1.08;;
61741;SDS011;47650;49.848;9.620;2022-09-09T12:40:21;3.30;;;1.47;;
61741;SDS011;47650;49.848;9.620;2022-09-09T12:42:51;3.35;;;1.42;;
61741;SDS011;47650;49.848;9.620;2022-09-09T12:45:20;2.13;;;1.48;;
61741;SDS011;47650;49.848;9.620;2022-09-09T12:47:50;2.03;;;1.38;;
61741;SDS011;47650;49.848;9.620;2022-09-09T12:50:22;1.83;;;1.25;;
61741;SDS011;47650;49.848;9.620;2022-09-09T12:52:56;2.20;;;1.20;;
61741;SDS011;47650;49.848;9.620;2022-09-09T12:55:25;2.03;;;1.35;;
61741;SDS011;47650;49.848;9.620;2022-09-09T12:57:55;2.08;;;1.25;;
61741;SDS011;47650;49.848;9.620;2022-09-09T13:00:23;1.25;;;0.93;;
61741;SDS011;47650;49.848;9.620;2022-09-09T13:03:41;1.60;;;1.20;;
61741;SDS011;47650;49.848;9.620;2022-09-09T13:05:45;1.85;;;1.38;;
61741;SDS011;47650;49.848;9.620;2022-09-09T13:08:12;4.65;;;1.60;;
61741;SDS011;47650;49.848;9.620;2022-09-09T13:10:53;2.55;;;1.23;;
61741;SDS011;47650;49.848;9.620;2022-09-09T13:13:25;2.80;;;1.48;;
61741;SDS011;47650;49.848;9.620;2022-09-09T13:15:56;2.65;;;1.40;;
61741;SDS011;47650;49.848;9.620;2022-09-09T13:18:28;1.85;;;1.30;;
61741;SDS011;47650;49.848;9.620;2022-09-09T13:21:08;2.58;;;1.83;;
61741;SDS011;47650;49.848;9.620;2022-09-09T13:23:34;3.10;;;1.50;;
61741;SDS011;47650;49.848;9.620;2022-09-09T13:26:04;1.95;;;1.55;;
61741;SDS011;47650;49.848;9.620;2022-09-09T13:28:32;2.47;;;1.48;;
61741;SDS011;47650;49.848;9.620;2022-09-09T13:31:03;2.72;;;1.20;;
61741;SDS011;47650;49.848;9.620;2022-09-09T13:36:04;3.00;;;1.65;;
61741;SDS011;47650;49.848;9.620;2022-09-09T13:38:53;2.67;;;1.10;;
61741;SDS011;47650;49.848;9.620;2022-09-09T13:41:21;4.88;;;1.30;;
61741;SDS011;47650;49.848;9.620;2022-09-09T13:43:50;3.13;;;1.52;;
61741;SDS011;47650;49.848;9.620;2022-09-09T13:51:38;2.80;;;1.10;;
61741;SDS011;47650;49.848;9.620;2022-09-09T13:54:09;3.00;;;1.52;;
61741;SDS011;47650;49.848;9.620;2022-09-09T13:56:37;3.72;;;1.50;;
61741;SDS011;47650;49.848;9.620;2022-09-09T13:59:04;5.57;;;1.40;;
61741;SDS011;47650;49.848;9.620;2022-09-09T14:01:30;3.20;;;1.33;;
61741;SDS011;47650;49.848;9.620;2022-09-09T14:03:56;4.15;;;1.20;;
61741;SDS011;47650;49.848;9.620;2022-09-09T14:06:23;3.00;;;1.20;;
61741;SDS011;47650;49.848;9.620;2022-09-09T14:08:49;5.03;;;1.40;;
61741;SDS011;47650;49.848;9.620;2022-09-09T14:11:15;5.65;;;1.27;;
61741;SDS011;47650;49.848;9.620;2022-09-09T14:13:41;5.03;;;1.42;;
61741;SDS011;47650;49.848;9.620;2022-09-09T14:16:07;10.00;;;1.77;;
61741;SDS011;47650;49.848;9.620;2022-09-09T14:18:32;14.23;;;2.67;;
61741;SDS011;47650;49.848;9.620;2022-09-09T14:20:58;7.28;;;1.85;;
61741;SDS011;47650;49.848;9.620;2022-09-09T14:23:31;7.97;;;3.35;;
61741;SDS011;47650;49.848;9.620;2022-09-09T14:25:58;7.43;;;2.03;;
61741;SDS011;47650;49.848;9.620;2022-09-09T14:28:23;7.28;;;1.65;;
61741;SDS011;47650;49.848;9.620;2022-09-09T14:30:50;8.93;;;1.83;;
61741;SDS011;47650;49.848;9.620;2022-09-09T14:33:15;10.02;;;2.38;;
61741;SDS011;47650;49.848;9.620;2022-09-09T14:35:44;5.00;;;1.45;;
61741;SDS011;47650;49.848;9.620;2022-09-09T14:38:09;6.20;;;1.80;;
61741;SDS011;47650;49.848;9.620;2022-09-09T14:40:35;5.90;;;2.22;;
61741;SDS011;47650;49.848;9.620;2022-09-09T14:43:02;8.48;;;3.17;;
61741;SDS011;47650;49.848;9.620;2022-09-09T14:45:28;12.30;;;6.38;;
61741;SDS011;47650;49.848;9.620;2022-09-09T14:47:56;7.47;;;4.55;;
61741;SDS011;47650;49.848;9.620;2022-09-09T14:50:22;7.70;;;3.88;;
61741;SDS011;47650;49.848;9.620;2022-09-09T14:52:48;5.78;;;2.90;;
61741;SDS011;47650;49.848;9.620;2022-09-09T14:55:14;7.30;;;2.97;;
61741;SDS011;47650;49.848;9.620;2022-09-09T14:57:40;7.70;;;3.00;;
61741;SDS011;47650;49.848;9.620;2022-09-09T15:00:06;7.25;;;2.88;;
61741;SDS011;47650;49.848;9.620;2022-09-09T15:02:33;6.20;;;1.80;;
61741;SDS011;47650;49.848;9.620;2022-09-09T15:04:58;4.32;;;1.70;;
61741;SDS011;47650;49.848;9.620;2022-09-09T15:07:25;8.90;;;3.30;;
61741;SDS011;47650;49.848;9.620;2022-09-09T15:09:52;8.60;;;2.70;;
61741;SDS011;47650;49.848;9.620;2022-09-09T15:12:18;4.45;;;1.63;;
61741;SDS011;47650;49.848;9.620;2022-09-09T15:14:43;6.45;;;1.98;;
61741;SDS011;47650;49.848;9.620;2022-09-09T15:17:09;4.47;;;1.73;;
61741;SDS011;47650;49.848;9.620;2022-09-09T15:19:34;8.30;;;2.45;;
61741;SDS011;47650;49.848;9.620;2022-09-09T15:22:01;6.80;;;1.60;;
61741;SDS011;47650;49.848;9.620;2022-09-09T15:24:28;5.13;;;1.50;;
61741;SDS011;47650;49.848;9.620;2022-09-09T15:26:54;5.30;;;1.67;;
61741;SDS011;47650;49.848;9.620;2022-09-09T15:29:20;5.47;;;1.95;;
61741;SDS011;47650;49.848;9.620;2022-09-09T15:31:46;4.28;;;1.40;;
61741;SDS011;47650;49.848;9.620;2022-09-09T15:34:12;5.78;;;1.38;;
61741;SDS011;47650;49.848;9.620;2022-09-09T15:36:42;4.70;;;1.20;;
61741;SDS011;47650;49.848;9.620;2022-09-09T15:39:12;4.10;;;1.25;;
61741;SDS011;47650;49.848;9.620;2022-09-09T15:41:40;3.63;;;1.30;;
61741;SDS011;47650;49.848;9.620;2022-09-09T15:44:07;3.80;;;1.38;;
61741;SDS011;47650;49.848;9.620;2022-09-09T15:49:10;2.57;;;1.03;;
61741;SDS011;47650;49.848;9.620;2022-09-09T15:51:47;2.72;;;1.08;;
61741;SDS011;47650;49.848;9.620;2022-09-09T15:54:17;2.83;;;0.80;;
61741;SDS011;47650;49.848;9.620;2022-09-09T15:56:45;4.82;;;1.20;;
61741;SDS011;47650;49.848;9.620;2022-09-09T15:59:13;1.63;;;1.10;;
61741;SDS011;47650;49.848;9.620;2022-09-09T16:01:39;2.60;;;1.33;;
61741;SDS011;47650;49.848;9.620;2022-09-09T16:04:08;6.03;;;1.52;;
61741;SDS011;47650;49.848;9.620;2022-09-09T16:06:33;4.15;;;1.40;;
61741;SDS011;47650;49.848;9.620;2022-09-09T16:09:02;2.53;;;1.20;;
61741;SDS011;47650;49.848;9.620;2022-09-09T16:11:37;2.65;;;1.35;;
61741;SDS011;47650;49.848;9.620;2022-09-09T16:14:02;3.50;;;1.27;;
61741;SDS011;47650;49.848;9.620;2022-09-09T16:16:29;3.97;;;1.25;;
61741;SDS011;47650;49.848;9.620;2022-09-09T16:18:56;2.80;;;1.20;;
61741;SDS011;47650;49.848;9.620;2022-09-09T16:21:34;3.13;;;1.30;;
61741;SDS011;47650;49.848;9.620;2022-09-09T16:24:03;2.42;;;1.20;;
61741;SDS011;47650;49.848;9.620;2022-09-09T16:26:31;2.85;;;1.02;;
61741;SDS011;47650;49.848;9.620;2022-09-09T16:28:59;3.65;;;1.20;;
61741;SDS011;47650;49.848;9.620;2022-09-09T16:31:26;3.38;;;1.20;;
61741;SDS011;47650;49.848;9.620;2022-09-09T16:33:52;4.90;;;1.15;;
61741;SDS011;47650;49.848;9.620;2022-09-09T16:36:22;3.65;;;1.20;;
61741;SDS011;47650;49.848;9.620;2022-09-09T16:38:55;2.53;;;1.20;;
61741;SDS011;47650;49.848;9.620;2022-09-09T16:41:22;4.35;;;1.30;;
61741;SDS011;47650;49.848;9.620;2022-09-09T16:43:52;3.00;;;1.15;;
61741;SDS011;47650;49.848;9.620;2022-09-09T16:46:18;2.78;;;1.33;;
61741;SDS011;47650;49.848;9.620;2022-09-09T16:48:45;3.78;;;1.40;;
61741;SDS011;47650;49.848;9.620;2022-09-09T16:51:14;4.85;;;1.40;;
61741;SDS011;47650;49.848;9.620;2022-09-09T16:53:43;3.30;;;1.35;;
61741;SDS011;47650;49.848;9.620;2022-09-09T16:56:10;3.28;;;1.48;;
61741;SDS011;47650;49.848;9.620;2022-09-09T16:58:37;3.53;;;1.48;;
61741;SDS011;47650;49.848;9.620;2022-09-09T17:01:03;3.30;;;1.27;;
61741;SDS011;47650;49.848;9.620;2022-09-09T17:03:30;3.45;;;1.30;;
61741;SDS011;47650;49.848;9.620;2022-09-09T17:05:58;3.50;;;1.25;;
61741;SDS011;47650;49.848;9.620;2022-09-09T17:08:27;3.20;;;1.17;;
61741;SDS011;47650;49.848;9.620;2022-09-09T17:10:55;1.83;;;1.02;;
61741;SDS011;47650;49.848;9.620;2022-09-09T17:13:21;4.00;;;1.35;;
61741;SDS011;47650;49.848;9.620;2022-09-09T17:15:47;2.70;;;1.00;;
61741;SDS011;47650;49.848;9.620;2022-09-09T17:18:13;3.85;;;1.58;;
61741;SDS011;47650;49.848;9.620;2022-09-09T17:20:39;4.15;;;1.20;;
61741;SDS011;47650;49.848;9.620;2022-09-09T17:23:06;5.50;;;1.10;;
61741;SDS011;47650;49.848;9.620;2022-09-09T17:25:36;4.97;;;1.20;;
61741;SDS011;47650;49.848;9.620;2022-09-09T17:28:03;2.78;;;1.20;;
61741;SDS011;47650;49.848;9.620;2022-09-09T17:30:29;4.03;;;1.20;;
61741;SDS011;47650;49.848;9.620;2022-09-09T17:32:58;8.52;;;1.60;;
61741;SDS011;47650;49.848;9.620;2022-09-09T17:35:25;4.07;;;1.35;;
61741;SDS011;47650;49.848;9.620;2022-09-09T17:37:52;3.38;;;1.35;;
61741;SDS011;47650;49.848;9.620;2022-09-09T17:40:19;5.15;;;1.33;;